Time;durP1;ratioP1;P1;durP2;ratioP2;P2;SDS_P1;SDS_P2;PMS_P1;PMS_P2;Temp;Humidity;BMP_temperature;BMP_pressure;BME280_temperature;BME280_humidity;BME280_pressure;Samples;Min_cycle;Max_cycle;Signal;HPM_P1;HPM_P2
2022/10/30 00:01:36;;;;;;;18.70;2.70;;;;;;;12.61;90.69;99739.16;4933506;29;20422;-41
2022/10/30 00:04:03;;;;;;;16.02;2.30;;;;;;;12.57;90.62;99741.13;4931467;29;20454;-42
2022/10/30 00:06:30;;;;;;;15.80;2.10;;;;;;;12.52;90.63;99733.13;4930544;29;20047;-41
2022/10/30 00:08:56;;;;;;;10.75;2.38;;;;;;;12.49;90.79;99738.66;4930906;29;20502;-42
2022/10/30 00:11:23;;;;;;;12.68;2.38;;;;;;;12.48;90.87;99739.81;4929045;29;20040;-41
2022/10/30 00:13:50;;;;;;;8.68;2.42;;;;;;;12.45;90.63;99730.28;4928260;29;20043;-42
2022/10/30 00:16:17;;;;;;;15.65;2.40;;;;;;;12.44;90.66;99731.47;4930937;29;20078;-42
2022/10/30 00:18:43;;;;;;;10.57;2.25;;;;;;;12.41;90.67;99732.25;4931836;29;20050;-41
2022/10/30 00:21:13;;;;;;;9.95;2.00;;;;;;;12.37;90.49;99738.91;4930004;29;20517;-45
2022/10/30 00:23:51;;;;;;;17.90;3.20;;;;;;;12.30;90.71;99723.00;4931933;29;20052;-44
2022/10/30 00:26:19;;;;;;;16.95;3.45;;;;;;;12.26;90.63;99736.03;4930976;29;20058;-41
2022/10/30 00:28:53;;;;;;;16.08;2.72;;;;;;;12.26;90.67;99740.81;4923708;29;20039;-44
2022/10/30 00:31:21;;;;;;;9.50;1.88;;;;;;;12.26;90.45;99736.03;4929049;29;20391;-43
2022/10/30 00:33:52;;;;;;;6.65;1.52;;;;;;;12.31;90.48;99746.78;4929641;29;20044;-41
2022/10/30 00:36:20;;;;;;;6.80;1.70;;;;;;;12.36;90.38;99757.56;4927596;29;20134;-42
2022/10/30 00:38:47;;;;;;;6.38;1.77;;;;;;;12.42;90.39;99767.13;4933155;29;20039;-42
2022/10/30 00:41:19;;;;;;;9.98;1.95;;;;;;;12.48;90.17;99750.94;4933948;28;20336;-41
2022/10/30 00:43:47;;;;;;;11.55;2.90;;;;;;;12.48;90.04;99750.94;4931962;29;20056;-42
2022/10/30 00:46:26;;;;;;;7.45;2.08;;;;;;;12.48;90.04;99753.69;4928550;29;20043;-42
2022/10/30 00:48:58;;;;;;;13.32;2.15;;;;;;;12.44;89.71;99753.69;4931361;29;20056;-41
2022/10/30 00:51:27;;;;;;;10.98;2.47;;;;;;;12.40;89.83;99735.38;4932051;29;20044;-41
2022/10/30 00:53:58;;;;;;;17.77;3.70;;;;;;;12.38;90.06;99735.78;4931658;29;20046;-42
2022/10/30 00:56:25;;;;;;;11.90;1.88;;;;;;;12.38;89.78;99738.56;4932442;29;20394;-42
2022/10/30 00:59:04;;;;;;;14.43;3.45;;;;;;;12.39;89.80;99729.03;4932575;29;20051;-42
2022/10/30 01:01:35;;;;;;;9.50;1.70;;;;;;;12.39;89.57;99739.34;4932817;29;20418;-43
2022/10/30 01:04:05;;;;;;;10.68;2.08;;;;;;;12.38;89.30;99721.91;4930390;29;20051;-48
2022/10/30 01:06:35;;;;;;;7.70;1.88;;;;;;;12.41;89.26;99731.44;4931190;29;20065;-43
2022/10/30 01:09:03;;;;;;;8.80;1.60;;;;;;;12.43;89.09;99729.06;4931977;29;20410;-42
2022/10/30 01:11:30;;;;;;;11.77;2.92;;;;;;;12.44;88.87;99725.94;4931860;29;20448;-47
2022/10/30 01:14:02;;;;;;;13.00;1.70;;;;;;;12.42;88.92;99727.47;4931444;29;20048;-44
2022/10/30 01:16:28;;;;;;;13.13;1.90;;;;;;;12.38;88.88;99730.22;4929651;29;20454;-43
2022/10/30 01:19:25;;;;;;;10.57;2.15;;;;;;;12.32;88.95;99723.41;4932070;29;20048;-41
2022/10/30 01:22:04;;;;;;;11.35;2.58;;;;;;;12.25;89.16;99706.69;4927269;29;20095;-43
2022/10/30 01:24:54;;;;;;;16.65;2.75;;;;;;;12.18;89.40;99718.50;4930279;29;20537;-42
2022/10/30 01:27:50;;;;;;;13.63;2.55;;;;;;;12.15;90.14;99705.41;4929053;29;20043;-41
2022/10/30 01:30:35;;;;;;;13.40;2.70;;;;;;;12.16;90.21;99720.06;4927330;29;20051;-42
2022/10/30 01:33:20;;;;;;;14.70;2.83;;;;;;;12.15;90.42;99718.50;4917505;29;20063;-42
2022/10/30 01:36:03;;;;;;;14.38;2.75;;;;;;;12.12;90.56;99713.72;4935738;29;20505;-42
2022/10/30 01:38:46;;;;;;;15.15;2.13;;;;;;;12.11;90.85;99712.09;4926606;29;20035;-41
2022/10/30 01:41:12;;;;;;;12.35;1.92;;;;;;;12.13;90.78;99709.72;4931600;29;20047;-43
2022/10/30 01:43:41;;;;;;;17.17;2.35;;;;;;;12.15;90.89;99697.06;4928879;29;20145;-41
2022/10/30 01:46:40;;;;;;;14.25;2.58;;;;;;;12.16;90.94;99703.44;4925114;29;20039;-43
2022/10/30 01:49:22;;;;;;;40.03;6.53;;;;;;;12.17;91.01;99702.25;4929494;28;20059;-41
2022/10/30 01:52:38;;;;;;;17.02;3.10;;;;;;;12.15;91.07;99707.41;4930646;29;20051;-46
2022/10/30 01:55:32;;;;;;;16.40;4.15;;;;;;;12.11;91.29;99714.88;4923228;29;20044;-42
2022/10/30 01:58:01;;;;;;;15.45;2.65;;;;;;;12.09;91.45;99711.69;4931228;29;20056;-44
2022/10/30 02:00:28;;;;;;;11.77;2.50;;;;;;;12.07;91.77;99705.72;4931347;29;20603;-42
2022/10/30 02:02:55;;;;;;;19.73;4.15;;;;;;;12.07;92.12;99703.72;4931419;29;20060;-41
2022/10/30 02:05:32;;;;;;;15.70;2.67;;;;;;;12.07;92.08;99703.72;4928612;29;20050;-45
2022/10/30 02:08:00;;;;;;;16.60;2.50;;;;;;;12.07;92.14;99703.72;4926420;29;20044;-42
2022/10/30 02:10:29;;;;;;;17.60;3.78;;;;;;;12.07;92.13;99695.41;4932197;29;20079;-41
2022/10/30 02:12:56;;;;;;;11.27;2.28;;;;;;;12.09;92.15;99703.38;4931467;29;20114;-42
2022/10/30 02:15:23;;;;;;;12.40;2.25;;;;;;;12.13;91.88;99704.19;4931101;29;20044;-43
2022/10/30 02:17:49;;;;;;;9.15;2.28;;;;;;;12.21;91.69;99700.31;4930565;29;20044;-41
2022/10/30 02:20:18;;;;;;;16.83;4.18;;;;;;;12.26;91.52;99697.19;4929131;29;20438;-43
2022/10/30 02:22:45;;;;;;;14.20;2.50;;;;;;;12.30;91.49;99694.44;4928757;29;20059;-42
2022/10/30 02:25:13;;;;;;;17.63;4.53;;;;;;;12.32;91.31;99692.09;4928119;29;20798;-42
2022/10/30 02:27:40;;;;;;;15.40;2.30;;;;;;;12.32;91.30;99687.34;4930285;29;20043;-41
2022/10/30 02:30:07;;;;;;;13.63;2.80;;;;;;;12.34;91.57;99696.06;4928019;29;20062;-43
2022/10/30 02:32:37;;;;;;;18.13;4.32;;;;;;;12.34;91.56;99695.28;4930214;29;20054;-42
2022/10/30 02:35:04;;;;;;;20.92;2.80;;;;;;;12.33;91.63;99702.81;4930257;29;20047;-41
2022/10/30 02:37:34;;;;;;;15.55;3.30;;;;;;;12.32;91.76;99687.34;4933713;29;20052;-42
2022/10/30 02:40:03;;;;;;;11.90;2.15;;;;;;;12.32;91.99;99672.66;4930754;29;20059;-42
2022/10/30 02:42:29;;;;;;;16.27;3.60;;;;;;;12.35;91.87;99677.44;4932853;29;20045;-42
2022/10/30 02:44:56;;;;;;;18.17;3.33;;;;;;;12.39;91.99;99673.50;4932134;29;20040;-42
2022/10/30 02:47:23;;;;;;;17.67;2.75;;;;;;;12.42;92.01;99681.06;4933903;29;20050;-41
2022/10/30 02:49:49;;;;;;;17.20;3.58;;;;;;;12.47;91.74;99663.28;4932536;29;20498;-41
2022/10/30 02:52:16;;;;;;;20.40;3.75;;;;;;;12.47;91.92;99655.75;4934637;29;20383;-41
2022/10/30 02:54:43;;;;;;;18.23;3.50;;;;;;;12.47;91.68;99664.06;4933440;29;20043;-43
2022/10/30 02:57:09;;;;;;;13.38;4.20;;;;;;;12.49;91.89;99669.25;4934855;29;20055;-42
2022/10/30 02:59:36;;;;;;;17.00;3.08;;;;;;;12.50;91.90;99668.84;4934093;29;20040;-41
2022/10/30 03:02:03;;;;;;;11.40;2.33;;;;;;;12.49;92.08;99667.28;4975533;23;20254;-44
2022/10/30 03:04:29;;;;;;;13.05;2.80;;;;;;;12.50;92.28;99679.97;4948293;28;20081;-42
2022/10/30 03:06:56;;;;;;;11.70;3.38;;;;;;;12.50;92.39;99671.63;4950771;28;20044;-46
2022/10/30 03:09:23;;;;;;;18.80;3.60;;;;;;;12.50;92.37;99685.50;4946303;28;20047;-41
2022/10/30 03:11:49;;;;;;;19.30;3.03;;;;;;;12.52;92.45;99674.03;4953474;28;20054;-41
2022/10/30 03:14:16;;;;;;;14.85;2.60;;;;;;;12.53;92.48;99679.19;4952073;28;20095;-42
2022/10/30 03:16:43;;;;;;;19.33;3.78;;;;;;;12.53;92.66;99681.97;4952181;28;20043;-41
2022/10/30 03:19:09;;;;;;;17.08;3.75;;;;;;;12.51;92.81;99678.78;4951870;28;20058;-42
2022/10/30 03:21:36;;;;;;;16.75;3.63;;;;;;;12.52;92.87;99683.13;4953303;28;20043;-42
2022/10/30 03:24:03;;;;;;;18.48;3.20;;;;;;;12.52;92.82;99685.16;4953606;28;20496;-42
2022/10/30 03:26:30;;;;;;;21.65;4.57;;;;;;;12.53;93.10;99684.75;4949992;28;20052;-41
2022/10/30 03:28:56;;;;;;;17.33;4.35;;;;;;;12.54;93.20;99680.81;4950271;28;20054;-46
2022/10/30 03:31:23;;;;;;;16.45;4.28;;;;;;;12.55;93.12;99668.50;4949817;28;20122;-41
2022/10/30 03:33:50;;;;;;;16.02;3.67;;;;;;;12.55;93.07;99678.81;4950492;28;20067;-42
2022/10/30 03:36:17;;;;;;;21.98;3.67;;;;;;;12.55;93.19;99667.72;4949292;29;20047;-42
2022/10/30 03:38:43;;;;;;;12.82;3.13;;;;;;;12.54;93.43;99669.69;4950358;28;20054;-41
2022/10/30 03:41:10;;;;;;;13.85;2.30;;;;;;;12.55;93.48;99676.06;4950963;28;20043;-41
2022/10/30 03:43:37;;;;;;;13.00;2.72;;;;;;;12.57;93.57;99674.47;4950829;28;20062;-42
2022/10/30 03:46:03;;;;;;;20.45;5.53;;;;;;;12.57;93.43;99673.69;4962569;28;20058;-43
2022/10/30 03:48:30;;;;;;;19.33;5.80;;;;;;;12.56;93.34;99670.09;4950610;28;20138;-42
2022/10/30 03:50:58;;;;;;;20.63;2.80;;;;;;;12.55;93.43;99660.16;4950078;28;20397;-45
2022/10/30 03:53:27;;;;;;;21.05;5.03;;;;;;;12.55;93.38;99651.06;4947180;29;20047;-44
2022/10/30 03:56:02;;;;;;;18.10;3.20;;;;;;;12.55;93.55;99646.28;4942158;28;20055;-41
2022/10/30 03:58:29;;;;;;;20.63;3.30;;;;;;;12.55;93.60;99651.06;4945537;28;20043;-44
2022/10/30 04:01:03;;;;;;;17.60;2.42;;;;;;;12.55;93.56;99643.50;4920140;28;20055;-42
2022/10/30 04:03:30;;;;;;;16.70;3.88;;;;;;;12.57;93.60;99638.38;4918116;28;20161;-44
2022/10/30 04:05:56;;;;;;;20.15;3.30;;;;;;;12.59;93.55;99636.03;4918399;29;20051;-44
2022/10/30 04:08:23;;;;;;;21.00;2.88;;;;;;;12.61;93.58;99647.53;4919874;29;20043;-44
2022/10/30 04:10:52;;;;;;;19.38;4.35;;;;;;;12.63;93.48;99633.25;4919148;29;20178;-45
2022/10/30 04:13:19;;;;;;;10.73;2.63;;;;;;;12.65;93.36;99631.72;4921413;28;20050;-41
2022/10/30 04:15:50;;;;;;;15.52;4.10;;;;;;;12.68;93.35;99628.13;4932593;28;20712;-43
2022/10/30 04:18:23;;;;;;;14.70;2.95;;;;;;;12.68;93.50;99625.34;4919235;29;20047;-43
2022/10/30 04:20:50;;;;;;;16.13;3.30;;;;;;;12.69;93.11;99624.19;4932104;28;20151;-44
2022/10/30 04:23:18;;;;;;;10.15;3.17;;;;;;;12.75;93.01;99630.19;4933064;28;20074;-44
2022/10/30 04:25:45;;;;;;;14.60;2.63;;;;;;;12.80;92.86;99625.06;4917890;28;20801;-42
2022/10/30 04:28:13;;;;;;;12.38;2.40;;;;;;;12.81;92.67;99618.31;4919152;29;20521;-42
2022/10/30 04:30:39;;;;;;;17.10;3.95;;;;;;;12.83;92.55;99612.38;4918459;29;21694;-42
2022/10/30 04:33:10;;;;;;;23.75;4.85;;;;;;;12.83;92.45;99615.16;4919430;28;21584;-44
2022/10/30 04:35:37;;;;;;;13.07;4.07;;;;;;;12.82;92.73;99610.78;4918230;28;20054;-48
2022/10/30 04:38:07;;;;;;;12.15;2.63;;;;;;;12.81;92.68;99607.19;4917864;28;20050;-46
2022/10/30 04:40:36;;;;;;;13.65;3.20;;;;;;;12.80;92.74;99608.38;4918431;28;20480;-43
2022/10/30 04:43:03;;;;;;;11.95;2.70;;;;;;;12.78;92.69;99610.78;4918497;28;20062;-42
2022/10/30 04:45:31;;;;;;;18.98;3.33;;;;;;;12.76;92.95;99615.88;4918346;28;21635;-44
2022/10/30 04:48:06;;;;;;;12.95;2.70;;;;;;;12.76;93.02;99612.34;4917762;28;20506;-43
2022/10/30 04:50:34;;;;;;;11.68;2.22;;;;;;;12.74;93.15;99615.47;4919189;28;20563;-42
2022/10/30 04:53:03;;;;;;;17.10;3.75;;;;;;;12.73;93.39;99613.09;4919640;28;20075;-43
2022/10/30 04:55:30;;;;;;;15.15;3.33;;;;;;;12.71;93.60;99607.91;4943223;28;20054;-42
2022/10/30 04:57:58;;;;;;;10.73;3.13;;;;;;;12.72;93.93;99603.97;4946983;28;20214;-46
2022/10/30 05:00:26;;;;;;;15.00;3.15;;;;;;;12.73;93.87;99591.66;4947325;28;20115;-42
2022/10/30 05:03:00;;;;;;;9.27;3.17;;;;;;;12.74;93.94;99606.34;4948893;28;20047;-42
2022/10/30 05:05:30;;;;;;;6.72;1.70;;;;;;;12.74;93.51;99612.72;4944997;29;20058;-42
2022/10/30 05:07:57;;;;;;;5.68;0.98;;;;;;;12.71;92.88;99607.91;4949150;28;20050;-46
2022/10/30 05:10:24;;;;;;;3.38;0.55;;;;;;;12.69;92.11;99610.28;4948098;28;20449;-42
2022/10/30 05:12:54;;;;;;;1.70;0.28;;;;;;;12.66;91.28;99599.97;4947525;28;20192;-42
2022/10/30 05:15:21;;;;;;;2.05;0.25;;;;;;;12.62;90.60;99603.91;4948333;29;20039;-41
2022/10/30 05:17:52;;;;;;;1.02;0.45;;;;;;;12.54;90.34;99603.06;4949996;29;20058;-41
2022/10/30 05:20:20;;;;;;;1.55;0.38;;;;;;;12.46;90.11;99606.97;4949238;28;20051;-41
2022/10/30 05:22:54;;;;;;;3.10;0.40;;;;;;;12.36;90.26;99610.47;4949168;28;20449;-40
2022/10/30 05:25:21;;;;;;;1.33;0.38;;;;;;;12.30;90.11;99623.09;4947664;29;20035;-41
2022/10/30 05:27:48;;;;;;;0.43;0.30;;;;;;;12.26;90.46;99624.25;4948611;28;20047;-41
2022/10/30 05:30:14;;;;;;;3.88;0.47;;;;;;;12.21;90.46;99617.06;4949725;28;20051;-44
2022/10/30 05:32:41;;;;;;;5.75;0.80;;;;;;;12.18;90.55;99618.63;4949584;28;20562;-41
2022/10/30 05:35:08;;;;;;;2.90;0.22;;;;;;;12.17;90.76;99617.03;4948253;28;20062;-44
2022/10/30 05:37:35;;;;;;;8.25;1.65;;;;;;;12.16;90.72;99603.53;4948866;29;20067;-41
2022/10/30 05:40:01;;;;;;;3.63;1.48;;;;;;;12.14;90.79;99595.63;4950384;28;20043;-41
2022/10/30 05:42:28;;;;;;;5.70;0.60;;;;;;;12.13;90.98;99579.34;4950672;28;20097;-41
2022/10/30 05:44:55;;;;;;;4.10;0.63;;;;;;;12.13;90.87;99576.56;4947250;28;20047;-40
2022/10/30 05:47:27;;;;;;;2.58;0.40;;;;;;;12.12;90.82;99574.97;4948269;29;20049;-44
2022/10/30 05:49:55;;;;;;;2.63;1.02;;;;;;;12.12;90.76;99586.06;4949329;28;20051;-42
2022/10/30 05:52:21;;;;;;;2.15;0.50;;;;;;;12.10;90.71;99582.88;4949535;28;20047;-41
2022/10/30 05:54:48;;;;;;;4.07;0.63;;;;;;;12.09;90.87;99597.94;4959956;28;20044;-41
2022/10/30 05:57:15;;;;;;;0.85;0.30;;;;;;;12.07;90.80;99600.31;4946414;28;20482;-42
2022/10/30 05:59:41;;;;;;;2.03;0.32;;;;;;;12.05;90.72;99595.13;4950240;28;20062;-46
2022/10/30 06:02:08;;;;;;;4.45;0.40;;;;;;;12.04;90.81;99598.28;4949927;28;20059;-41
2022/10/30 06:04:35;;;;;;;1.35;0.25;;;;;;;12.03;90.70;99594.72;4950556;28;20126;-41
2022/10/30 06:07:02;;;;;;;0.73;0.30;;;;;;;12.04;90.51;99601.06;4948284;29;20082;-44
2022/10/30 06:09:28;;;;;;;0.65;0.20;;;;;;;12.04;90.15;99589.97;4949038;28;21072;-41
2022/10/30 06:11:55;;;;;;;2.50;0.20;;;;;;;12.03;89.92;99597.50;4954190;28;20806;-41
2022/10/30 06:14:22;;;;;;;0.52;0.15;;;;;;;12.02;89.92;99581.25;4953899;28;20147;-42
2022/10/30 06:16:49;;;;;;;0.52;0.25;;;;;;;12.00;89.83;99584.38;4952769;29;20047;-40
2022/10/30 06:19:15;;;;;;;0.30;0.13;;;;;;;11.99;89.78;99576.47;4953975;28;20457;-48
2022/10/30 06:21:45;;;;;;;2.10;0.30;;;;;;;11.97;89.76;99576.81;4954305;29;20070;-41
2022/10/30 06:24:12;;;;;;;0.98;0.20;;;;;;;11.95;89.57;99581.97;4954010;28;20043;-41
2022/10/30 06:26:39;;;;;;;1.08;0.13;;;;;;;11.94;89.50;99579.59;4952696;28;20055;-45
2022/10/30 06:29:06;;;;;;;0.93;0.20;;;;;;;11.94;89.43;99569.25;4951873;28;20069;-41
2022/10/30 06:31:33;;;;;;;1.05;0.20;;;;;;;11.93;89.43;99567.69;4953342;28;20043;-41
2022/10/30 06:34:00;;;;;;;2.05;0.20;;;;;;;11.91;89.26;99567.28;4951152;28;20075;-41
2022/10/30 06:36:26;;;;;;;2.53;0.30;;;;;;;11.89;89.30;99566.03;4953223;28;20058;-41
2022/10/30 06:38:53;;;;;;;1.52;0.47;;;;;;;11.84;89.11;99558.88;4949051;28;20052;-46
2022/10/30 06:41:19;;;;;;;1.90;0.50;;;;;;;11.78;89.44;99560.41;4952538;28;20050;-40
2022/10/30 06:43:55;;;;;;;2.17;0.40;;;;;;;11.75;89.41;99555.63;4951978;28;20036;-41
2022/10/30 06:46:22;;;;;;;4.53;0.90;;;;;;;11.69;89.63;99551.59;4952631;28;20047;-41
2022/10/30 06:48:54;;;;;;;3.33;1.10;;;;;;;11.65;89.59;99558.28;4950677;28;20054;-41
2022/10/30 06:51:21;;;;;;;4.45;1.38;;;;;;;11.58;90.04;99559.78;4953394;28;20055;-41
2022/10/30 06:53:48;;;;;;;7.10;1.48;;;;;;;11.53;90.49;99553.78;4951735;28;20086;-40
2022/10/30 06:56:15;;;;;;;2.53;0.98;;;;;;;11.49;90.49;99552.97;4951903;28;20059;-44
2022/10/30 06:58:42;;;;;;;4.25;1.60;;;;;;;11.44;90.89;99564.38;4945617;28;20489;-43
2022/10/30 07:01:08;;;;;;;2.30;0.85;;;;;;;11.40;90.90;99561.56;4947865;29;20087;-41
2022/10/30 07:03:35;;;;;;;3.95;0.75;;;;;;;11.35;90.97;99559.16;4949574;28;20043;-41
2022/10/30 07:06:02;;;;;;;4.07;0.90;;;;;;;11.33;91.31;99560.72;4952601;28;20137;-43
2022/10/30 07:08:29;;;;;;;7.25;2.13;;;;;;;11.29;91.41;99560.66;4950646;28;20517;-41
2022/10/30 07:10:57;;;;;;;3.28;0.90;;;;;;;11.26;91.62;99561.41;4952996;28;20043;-42
2022/10/30 07:13:24;;;;;;;2.83;0.65;;;;;;;11.21;91.75;99558.97;4951989;28;20047;-42
2022/10/30 07:15:51;;;;;;;3.75;0.85;;;;;;;11.20;91.95;99565.69;4946466;28;20130;-41
2022/10/30 07:18:18;;;;;;;6.35;0.90;;;;;;;11.17;91.98;99558.16;4950629;28;20055;-41
2022/10/30 07:20:45;;;;;;;3.72;1.45;;;;;;;11.17;92.13;99562.91;4951687;28;20043;-40
2022/10/30 07:23:11;;;;;;;6.07;1.27;;;;;;;11.16;92.31;99564.06;4952254;28;20047;-41
2022/10/30 07:25:38;;;;;;;3.83;1.48;;;;;;;11.15;92.25;99566.03;4951337;29;20046;-40
2022/10/30 07:28:05;;;;;;;4.63;1.30;;;;;;;11.16;92.30;99555.75;4951541;28;20472;-41
2022/10/30 07:30:31;;;;;;;3.90;0.95;;;;;;;11.15;92.28;99554.13;4949964;28;20063;-41
2022/10/30 07:33:03;;;;;;;7.50;2.80;;;;;;;11.14;92.23;99545.06;4952013;28;20036;-41
2022/10/30 07:35:31;;;;;;;6.97;2.78;;;;;;;11.12;92.53;99552.16;4949240;28;20125;-41
2022/10/30 07:38:07;;;;;;;4.00;1.83;;;;;;;11.10;92.46;99544.19;4951474;29;20039;-40
2022/10/30 07:40:33;;;;;;;6.25;1.73;;;;;;;11.09;92.81;99533.50;4951997;28;20508;-41
2022/10/30 07:43:01;;;;;;;5.13;1.20;;;;;;;11.09;92.70;99537.09;4951237;28;20075;-40
2022/10/30 07:45:29;;;;;;;4.32;1.00;;;;;;;11.08;92.86;99532.72;4949519;28;20535;-46
2022/10/30 07:47:56;;;;;;;7.63;1.00;;;;;;;11.10;93.06;99526.78;4950531;28;20473;-42
2022/10/30 07:50:23;;;;;;;2.75;0.77;;;;;;;11.11;92.90;99525.63;4950140;29;20055;-41
2022/10/30 07:52:50;;;;;;;5.90;0.88;;;;;;;11.12;93.08;99525.22;4951704;28;20109;-43
2022/10/30 07:55:17;;;;;;;3.65;0.90;;;;;;;11.16;92.92;99516.97;4950743;28;20050;-41
2022/10/30 07:57:43;;;;;;;7.28;0.82;;;;;;;11.19;93.09;99511.47;4952212;28;20051;-42
2022/10/30 08:00:12;;;;;;;7.13;0.88;;;;;;;11.22;93.12;99510.72;4949916;28;20051;-41
2022/10/30 08:02:40;;;;;;;7.32;1.25;;;;;;;11.25;93.33;99509.94;4946629;29;20047;-41
2022/10/30 08:05:08;;;;;;;6.68;1.25;;;;;;;11.30;93.03;99517.94;4952479;28;20169;-45
2022/10/30 08:07:36;;;;;;;4.53;2.20;;;;;;;11.35;93.35;99517.59;4952140;28;20509;-45
2022/10/30 08:10:04;;;;;;;12.77;1.75;;;;;;;11.37;93.16;99526.31;4942104;28;20054;-44
2022/10/30 08:12:32;;;;;;;9.23;2.13;;;;;;;11.42;93.16;99525.16;4951285;28;20402;-42
2022/10/30 08:14:59;;;;;;;4.70;0.95;;;;;;;11.45;93.19;99536.28;4952254;28;20051;-42
2022/10/30 08:17:26;;;;;;;7.57;1.80;;;;;;;11.47;93.30;99525.63;4951967;28;20047;-42
2022/10/30 08:19:54;;;;;;;5.43;0.85;;;;;;;11.48;93.25;99541.09;4945213;28;20059;-43
2022/10/30 08:22:20;;;;;;;11.98;2.13;;;;;;;11.50;93.03;99533.19;4951288;28;20051;-42
2022/10/30 08:24:47;;;;;;;5.93;1.38;;;;;;;11.51;93.15;99532.00;4949519;28;20125;-43
2022/10/30 08:27:14;;;;;;;2.95;0.80;;;;;;;11.49;93.09;99528.78;4961431;28;20059;-41
2022/10/30 08:29:41;;;;;;;15.43;2.83;;;;;;;11.49;92.89;99542.66;4946155;28;20051;-41
2022/10/30 08:32:07;;;;;;;5.90;1.38;;;;;;;11.46;92.99;99548.97;4948938;28;20051;-42
2022/10/30 08:34:34;;;;;;;7.68;3.08;;;;;;;11.48;93.01;99545.81;4950257;28;20043;-41
2022/10/30 08:37:01;;;;;;;9.45;2.63;;;;;;;11.49;93.00;99544.66;4937881;28;20055;-42
2022/10/30 08:39:27;;;;;;;5.13;1.27;;;;;;;11.50;92.77;99555.34;4950284;28;20056;-42
2022/10/30 08:41:57;;;;;;;8.48;1.58;;;;;;;11.51;92.76;99545.88;4950924;28;20051;-42
2022/10/30 08:44:24;;;;;;;7.25;1.33;;;;;;;11.54;92.84;99549.84;4964145;28;20047;-45
2022/10/30 08:46:53;;;;;;;5.80;1.15;;;;;;;11.55;92.76;99552.22;4949293;28;20126;-42
2022/10/30 08:49:20;;;;;;;9.15;2.13;;;;;;;11.57;92.90;99549.88;4950741;28;20402;-41
2022/10/30 08:51:46;;;;;;;10.20;2.78;;;;;;;11.60;92.95;99553.84;4951257;28;20519;-44
2022/10/30 08:54:13;;;;;;;5.43;1.90;;;;;;;11.62;92.73;99557.84;4950820;28;20076;-41
2022/10/30 08:56:40;;;;;;;6.68;1.27;;;;;;;11.63;92.74;99556.66;4951421;28;20083;-45
2022/10/30 08:59:06;;;;;;;9.27;1.58;;;;;;;11.67;92.62;99561.47;4950258;28;20055;-42
2022/10/30 09:01:35;;;;;;;4.97;1.20;;;;;;;11.69;92.73;99559.94;4928752;28;20433;-43
2022/10/30 09:04:02;;;;;;;6.25;1.25;;;;;;;11.74;92.46;99558.78;4945495;28;20031;-48
2022/10/30 09:06:30;;;;;;;6.93;1.63;;;;;;;11.77;92.57;99566.34;4944568;28;20043;-42
2022/10/30 09:08:57;;;;;;;9.27;1.73;;;;;;;11.83;92.41;99568.41;4949379;28;20043;-43
2022/10/30 09:11:23;;;;;;;6.82;1.20;;;;;;;11.89;92.18;99566.03;4948627;28;20077;-43
2022/10/30 09:13:50;;;;;;;7.95;1.48;;;;;;;11.96;91.99;99563.34;4948121;28;20047;-42
2022/10/30 09:16:17;;;;;;;11.10;1.23;;;;;;;12.01;91.81;99551.91;4948549;29;20046;-48
2022/10/30 09:18:43;;;;;;;7.50;2.03;;;;;;;12.08;91.78;99563.03;4951569;28;20043;-45
2022/10/30 09:21:10;;;;;;;9.95;2.38;;;;;;;12.16;91.44;99559.16;4957172;28;20414;-43
2022/10/30 09:23:37;;;;;;;11.38;1.75;;;;;;;12.22;91.05;99557.63;4941786;28;20383;-43
2022/10/30 09:26:04;;;;;;;13.73;3.15;;;;;;;12.29;91.03;99552.09;4949324;28;20043;-42
2022/10/30 09:28:30;;;;;;;5.30;2.13;;;;;;;12.35;90.82;99552.53;4950561;28;20062;-42
2022/10/30 09:30:57;;;;;;;7.88;1.45;;;;;;;12.39;90.59;99556.94;4948640;28;20051;-42
2022/10/30 09:33:24;;;;;;;7.50;1.25;;;;;;;12.40;90.64;99552.19;4951191;28;20528;-42
2022/10/30 09:35:50;;;;;;;8.73;1.10;;;;;;;12.40;90.46;99557.72;4949719;28;20490;-43
2022/10/30 09:38:17;;;;;;;6.70;1.10;;;;;;;12.41;90.35;99546.25;4948753;28;20054;-44
2022/10/30 09:41:16;;;;;;;14.45;1.90;;;;;;;12.46;90.02;99553.41;4947458;28;20752;-47
2022/10/30 09:44:03;;;;;;;4.68;1.30;;;;;;;12.51;89.91;99553.84;4969019;28;20051;-43
2022/10/30 09:46:54;;;;;;;6.78;2.03;;;;;;;12.56;89.73;99556.28;4947294;28;20134;-46
2022/10/30 09:49:38;;;;;;;11.73;2.25;;;;;;;12.59;89.59;99544.41;4946733;29;20179;-43
2022/10/30 09:52:28;;;;;;;10.10;2.08;;;;;;;12.58;89.40;99542.78;4947807;28;20062;-43
2022/10/30 09:54:55;;;;;;;7.30;1.50;;;;;;;12.57;89.05;99546.75;4949930;28;20046;-43
2022/10/30 09:57:55;;;;;;;10.15;1.33;;;;;;;12.59;89.07;99551.91;4950924;29;20051;-42
2022/10/30 10:00:32;;;;;;;8.75;1.33;;;;;;;12.60;89.00;99567.41;4940847;28;20047;-43
2022/10/30 10:03:40;;;;;;;5.70;1.60;;;;;;;12.67;88.63;99562.69;4947277;28;20047;-45
2022/10/30 10:06:15;;;;;;;10.00;1.95;;;;;;;12.76;88.56;99554.78;4944150;29;20051;-43
2022/10/30 10:08:49;;;;;;;8.73;1.35;;;;;;;12.89;88.06;99563.59;4949020;28;20043;-45
2022/10/30 10:11:24;;;;;;;8.00;1.48;;;;;;;12.92;87.74;99560.03;4947559;29;20055;-45
2022/10/30 10:14:07;;;;;;;12.25;1.77;;;;;;;12.93;87.27;99546.94;4942050;29;20137;-43
2022/10/30 10:16:39;;;;;;;6.35;0.98;;;;;;;12.97;86.86;99545.78;4948551;28;20165;-45
2022/10/30 10:19:18;;;;;;;7.90;1.27;;;;;;;13.05;86.79;99547.38;4950715;28;20055;-44
2022/10/30 10:21:52;;;;;;;3.83;0.90;;;;;;;13.13;85.89;99539.94;4947681;29;20134;-43
2022/10/30 10:24:23;;;;;;;6.38;1.10;;;;;;;13.19;85.36;99543.91;4946064;28;20047;-43
2022/10/30 10:26:56;;;;;;;2.30;0.85;;;;;;;13.22;85.13;99538.38;4950437;28;20070;-43
2022/10/30 10:29:56;;;;;;;5.97;1.77;;;;;;;13.21;84.68;99531.19;4949360;28;20056;-45
2022/10/30 10:32:51;;;;;;;3.95;0.95;;;;;;;13.14;84.74;99539.53;4940604;28;20477;-43
2022/10/30 10:35:47;;;;;;;3.30;0.93;;;;;;;13.07;84.66;99547.84;4944810;29;20051;-44
2022/10/30 10:38:22;;;;;;;9.77;1.15;;;;;;;13.03;84.77;99552.53;4948145;28;20051;-45
2022/10/30 10:41:18;;;;;;;10.73;1.42;;;;;;;13.00;84.77;99544.22;4948119;29;20054;-45
2022/10/30 10:44:05;;;;;;;11.27;1.10;;;;;;;12.96;84.73;99540.59;4947468;28;20489;-43
2022/10/30 10:47:04;;;;;;;5.35;1.77;;;;;;;12.93;85.11;99547.75;4935674;29;20070;-43
2022/10/30 10:49:46;;;;;;;44.17;3.60;;;;;;;12.92;85.01;99562.03;4945007;28;20059;-43
2022/10/30 10:52:13;;;;;;;7.65;1.23;;;;;;;12.92;85.25;99562.03;4944250;28;20043;-43
2022/10/30 10:54:44;;;;;;;9.75;2.30;;;;;;;12.94;85.33;99570.75;4948160;28;20099;-44
2022/10/30 10:57:27;;;;;;;5.30;1.65;;;;;;;12.95;85.48;99578.69;4951231;28;20142;-43
2022/10/30 11:00:03;;;;;;;12.90;2.40;;;;;;;12.96;85.66;99585.06;4953936;28;20043;-44
2022/10/30 11:03:02;;;;;;;7.95;1.02;;;;;;;12.99;85.65;99590.63;4950596;28;20055;-43
2022/10/30 11:05:38;;;;;;;6.93;1.25;;;;;;;13.00;85.69;99591.44;4939691;29;20086;-43
2022/10/30 11:08:18;;;;;;;6.80;1.58;;;;;;;13.00;85.77;99589.44;4949296;28;20039;-42
2022/10/30 11:10:54;;;;;;;6.90;1.20;;;;;;;13.03;85.93;99602.56;4951509;28;20142;-43
2022/10/30 11:13:24;;;;;;;15.65;1.75;;;;;;;13.10;86.29;99590.72;4952114;29;20051;-45
2022/10/30 11:16:01;;;;;;;12.23;1.95;;;;;;;13.29;86.18;99588.41;4949003;28;20565;-44
2022/10/30 11:18:27;;;;;;;8.50;3.17;;;;;;;13.47;85.90;99566.25;4953378;28;20047;-42
2022/10/30 11:21:07;;;;;;;3.90;1.30;;;;;;;13.48;85.46;99573.38;4951979;28;20401;-48
2022/10/30 11:23:40;;;;;;;7.93;1.83;;;;;;;13.42;85.50;99572.97;4945965;28;20055;-44
2022/10/30 11:26:21;;;;;;;3.25;0.47;;;;;;;13.40;85.40;99578.13;4950515;28;20050;-47
2022/10/30 11:28:54;;;;;;;3.55;0.70;;;;;;;13.40;85.39;99571.75;4940033;29;20083;-47
2022/10/30 11:31:22;;;;;;;4.45;0.85;;;;;;;13.38;85.40;99563.03;4950800;28;20102;-43
2022/10/30 11:33:50;;;;;;;4.20;0.63;;;;;;;13.38;85.39;99563.03;4950839;28;20043;-42
2022/10/30 11:36:21;;;;;;;5.07;0.70;;;;;;;13.37;85.06;99578.09;4950270;29;20412;-43
2022/10/30 11:38:49;;;;;;;4.38;0.77;;;;;;;13.35;84.45;99567.38;4953626;28;20066;-47
2022/10/30 11:41:16;;;;;;;9.82;1.05;;;;;;;13.35;83.92;99570.16;4952294;28;20141;-43
2022/10/30 11:43:44;;;;;;;6.32;1.10;;;;;;;13.34;83.22;99578.91;4951564;28;20102;-41
2022/10/30 11:46:19;;;;;;;1.90;0.73;;;;;;;13.33;83.16;99594.00;4949775;28;20047;-45